createdAt,value
2023-12-02T00:00:18.582Z,-2.36
2023-12-02T00:01:58.971Z,-2.34
2023-12-02T00:03:39.432Z,-2.36
2023-12-02T00:05:19.751Z,-2.36
2023-12-02T00:07:00.121Z,-2.36
2023-12-02T00:08:40.484Z,-2.37
2023-12-02T00:10:20.923Z,-2.37
2023-12-02T00:12:01.305Z,-2.37
2023-12-02T00:13:41.632Z,-2.38
2023-12-02T00:15:22.096Z,-2.36
2023-12-02T00:17:02.405Z,-2.37
2023-12-02T00:18:42.915Z,-2.41
2023-12-02T00:20:23.250Z,-2.4
2023-12-02T00:22:03.551Z,-2.4
2023-12-02T00:23:43.961Z,-2.41
2023-12-02T00:25:24.405Z,-2.44
2023-12-02T00:27:04.761Z,-2.43
2023-12-02T00:28:45.121Z,-2.43
2023-12-02T00:30:25.516Z,-2.41
2023-12-02T00:32:05.970Z,-2.41
2023-12-02T00:33:46.448Z,-2.43
2023-12-02T00:35:26.688Z,-2.4
2023-12-02T00:37:07.026Z,-2.4
2023-12-02T00:38:47.450Z,-2.4
2023-12-02T00:40:27.774Z,-2.41
2023-12-02T00:42:08.196Z,-2.41
2023-12-02T00:43:48.612Z,-2.41
2023-12-02T00:45:29.019Z,-2.43
2023-12-02T00:47:09.387Z,-2.41
2023-12-02T00:48:49.807Z,-2.43
2023-12-02T00:50:30.092Z,-2.44
2023-12-02T00:52:10.499Z,-2.43
2023-12-02T00:53:50.831Z,-2.41
2023-12-02T00:55:31.223Z,-2.41
2023-12-02T00:57:11.667Z,-2.43
2023-12-02T00:58:52.039Z,-2.44
2023-12-02T01:00:32.446Z,-2.44
2023-12-02T01:02:12.937Z,-2.41
2023-12-02T01:03:53.239Z,-2.43
2023-12-02T01:05:33.542Z,-2.41
2023-12-02T01:07:13.882Z,-2.41
2023-12-02T01:08:54.245Z,-2.43
2023-12-02T01:10:34.579Z,-2.41
2023-12-02T01:12:15.022Z,-2.38
2023-12-02T01:13:55.352Z,-2.4
2023-12-02T01:15:35.757Z,-2.41
2023-12-02T01:17:16.164Z,-2.41
2023-12-02T01:18:56.660Z,-2.4
2023-12-02T01:20:36.995Z,-2.38
2023-12-02T01:22:17.378Z,-2.4
2023-12-02T01:23:57.756Z,-2.37
2023-12-02T01:25:38.129Z,-2.38
2023-12-02T01:27:18.515Z,-2.4
2023-12-02T01:28:58.816Z,-2.38
2023-12-02T01:30:39.270Z,-2.4
2023-12-02T01:32:19.581Z,-2.4
2023-12-02T01:33:59.965Z,-2.4
2023-12-02T01:35:40.318Z,-2.43
2023-12-02T01:37:20.708Z,-2.4
2023-12-02T01:39:01.217Z,-2.4
2023-12-02T01:40:41.679Z,-2.4
2023-12-02T01:42:22.061Z,-2.41
2023-12-02T01:44:02.554Z,-2.4
2023-12-02T01:45:42.946Z,-2.41
2023-12-02T01:47:23.370Z,-2.38
2023-12-02T01:49:04.501Z,-2.4
2023-12-02T01:50:44.142Z,-2.4
2023-12-02T01:52:24.475Z,-2.38
2023-12-02T01:54:04.922Z,-2.4
2023-12-02T01:55:45.412Z,-2.41
2023-12-02T01:57:25.815Z,-2.37
2023-12-02T01:59:06.163Z,-2.37
2023-12-02T02:00:46.607Z,-2.38
2023-12-02T02:02:27.063Z,-2.41
2023-12-02T02:04:07.474Z,-2.38
2023-12-02T02:05:47.821Z,-2.36
2023-12-02T02:07:28.232Z,-2.41
2023-12-02T02:09:08.628Z,-2.38
2023-12-02T02:10:48.937Z,-2.41
2023-12-02T02:12:29.465Z,-2.37
2023-12-02T02:14:09.760Z,-2.4
2023-12-02T02:15:50.226Z,-2.38
2023-12-02T02:17:30.688Z,-2.38
2023-12-02T02:19:11.114Z,-2.41
2023-12-02T02:20:51.599Z,-2.37
2023-12-02T02:22:31.900Z,-2.4
2023-12-02T02:24:12.424Z,-2.37
2023-12-02T02:25:52.854Z,-2.37
2023-12-02T02:27:33.422Z,-2.36
2023-12-02T02:29:13.838Z,-2.36
2023-12-02T02:30:54.297Z,-2.37
2023-12-02T02:32:34.774Z,-2.37
2023-12-02T02:34:15.117Z,-2.38
2023-12-02T02:35:55.542Z,-2.38
2023-12-02T02:37:35.997Z,-2.38
2023-12-02T02:39:16.488Z,-2.38
2023-12-02T02:40:56.845Z,-2.38
2023-12-02T02:42:37.414Z,-2.38
2023-12-02T02:44:17.720Z,-2.38
2023-12-02T02:45:58.161Z,-2.38
2023-12-02T02:47:38.602Z,-2.4
2023-12-02T02:49:19.190Z,-2.4
2023-12-02T02:50:59.581Z,-2.38
2023-12-02T02:52:39.959Z,-2.38
2023-12-02T02:54:20.450Z,-2.36
2023-12-02T02:56:00.854Z,-2.36
2023-12-02T02:57:41.241Z,-2.34
2023-12-02T02:59:21.666Z,-2.33
2023-12-02T03:01:02.095Z,-2.34
2023-12-02T03:02:42.489Z,-2.33
2023-12-02T03:04:22.936Z,-2.33
2023-12-02T03:06:03.378Z,-2.31
2023-12-02T03:07:43.830Z,-2.31
2023-12-02T03:09:24.234Z,-2.34
2023-12-02T03:11:04.646Z,-2.33
2023-12-02T03:12:45.136Z,-2.33
2023-12-02T03:14:25.618Z,-2.36
2023-12-02T03:16:06.162Z,-2.31
2023-12-02T03:17:46.502Z,-2.3
2023-12-02T03:19:26.989Z,-2.29
2023-12-02T03:21:07.207Z,-2.3
2023-12-02T03:22:47.492Z,-2.3
2023-12-02T03:24:27.892Z,-2.31
2023-12-02T03:26:08.141Z,-2.31
2023-12-02T03:27:48.490Z,-2.31
2023-12-02T03:29:28.907Z,-2.33
2023-12-02T03:31:09.358Z,-2.33
2023-12-02T03:32:49.840Z,-2.3
2023-12-02T03:34:30.328Z,-2.33
2023-12-02T03:36:10.678Z,-2.36
2023-12-02T03:37:51.088Z,-2.34
2023-12-02T03:39:31.468Z,-2.33
2023-12-02T03:41:11.951Z,-2.34
2023-12-02T03:42:52.298Z,-2.34
2023-12-02T03:44:32.794Z,-2.33
2023-12-02T03:46:13.246Z,-2.34
2023-12-02T03:47:53.696Z,-2.34
2023-12-02T03:49:34.147Z,-2.34
2023-12-02T03:51:14.358Z,-2.38
2023-12-02T03:52:54.742Z,-2.36
2023-12-02T03:54:35.143Z,-2.4
2023-12-02T03:56:15.475Z,-2.36
2023-12-02T03:57:55.847Z,-2.37
2023-12-02T03:59:36.295Z,-2.38
2023-12-02T04:01:16.666Z,-2.38
2023-12-02T04:02:56.960Z,-2.4
2023-12-02T04:04:37.333Z,-2.38
2023-12-02T04:06:17.644Z,-2.4
2023-12-02T04:07:58.051Z,-2.38
2023-12-02T04:09:38.296Z,-2.4
2023-12-02T04:11:18.670Z,-2.41
2023-12-02T04:12:58.975Z,-2.38
2023-12-02T04:14:39.342Z,-2.4
2023-12-02T04:16:19.775Z,-2.38
2023-12-02T04:18:00.309Z,-2.41
2023-12-02T04:19:40.600Z,-2.45
2023-12-02T04:21:20.879Z,-2.44
2023-12-02T04:23:01.593Z,-2.47
2023-12-02T04:24:41.660Z,-2.45
2023-12-02T04:26:22.048Z,-2.45
2023-12-02T04:28:02.401Z,-2.47
2023-12-02T04:29:42.707Z,-2.47
2023-12-02T04:31:23.215Z,-2.5
2023-12-02T04:33:03.726Z,-2.51
2023-12-02T04:34:43.949Z,-2.51
2023-12-02T04:36:24.415Z,-2.51
2023-12-02T04:38:04.673Z,-2.54
2023-12-02T04:39:44.996Z,-2.55
2023-12-02T04:41:25.452Z,-2.57
2023-12-02T04:43:05.858Z,-2.53
2023-12-02T04:44:46.194Z,-2.55
2023-12-02T04:46:26.599Z,-2.53
2023-12-02T04:48:06.958Z,-2.54
2023-12-02T04:49:47.303Z,-2.55
2023-12-02T04:51:27.709Z,-2.57
2023-12-02T04:53:08.167Z,-2.57
2023-12-02T04:54:48.400Z,-2.57
2023-12-02T04:56:28.776Z,-2.57
2023-12-02T04:58:09.130Z,-2.57
2023-12-02T04:59:49.483Z,-2.58
2023-12-02T05:01:29.992Z,-2.58
2023-12-02T05:03:10.504Z,-2.55
2023-12-02T05:04:50.666Z,-2.57
2023-12-02T05:06:31.122Z,-2.57
2023-12-02T05:08:11.421Z,-2.58
2023-12-02T05:09:51.770Z,-2.57
2023-12-02T05:11:32.092Z,-2.55
2023-12-02T05:13:12.443Z,-2.54
2023-12-02T05:14:52.930Z,-2.58
2023-12-02T05:16:33.371Z,-2.54
2023-12-02T05:18:14.001Z,-2.58
2023-12-02T05:19:54.163Z,-2.57
2023-12-02T05:21:34.607Z,-2.58
2023-12-02T05:23:14.893Z,-2.6
2023-12-02T05:24:55.284Z,-2.6
2023-12-02T05:26:35.817Z,-2.58
2023-12-02T05:28:16.247Z,-2.58
2023-12-02T05:29:56.710Z,-2.57
2023-12-02T05:31:37.032Z,-2.55
2023-12-02T05:33:17.535Z,-2.55
2023-12-02T05:34:57.850Z,-2.51
2023-12-02T05:36:38.290Z,-2.54
2023-12-02T05:38:18.622Z,-2.53
2023-12-02T05:39:59.041Z,-2.53
2023-12-02T05:41:39.359Z,-2.51
2023-12-02T05:43:19.750Z,-2.53
2023-12-02T05:45:00.278Z,-2.53
2023-12-02T05:46:40.622Z,-2.5
2023-12-02T05:48:21.080Z,-2.51
2023-12-02T05:50:01.433Z,-2.5
2023-12-02T05:51:41.944Z,-2.5
2023-12-02T05:53:22.085Z,-2.47
2023-12-02T05:55:02.485Z,-2.48
2023-12-02T05:56:42.878Z,-2.48
2023-12-02T05:58:23.248Z,-2.47
2023-12-02T06:00:03.738Z,-2.47
2023-12-02T06:01:44.043Z,-2.47
2023-12-02T06:03:24.321Z,-2.43
2023-12-02T06:05:04.665Z,-2.44
2023-12-02T06:06:45.027Z,-2.45
2023-12-02T06:08:25.413Z,-2.45
2023-12-02T06:10:05.819Z,-2.45
2023-12-02T06:11:46.193Z,-2.41
2023-12-02T06:13:26.610Z,-2.43
2023-12-02T06:15:07.065Z,-2.44
2023-12-02T06:16:47.529Z,-2.47
2023-12-02T06:18:28.141Z,-2.47
2023-12-02T06:20:08.380Z,-2.48
2023-12-02T06:21:48.790Z,-2.47
2023-12-02T06:23:29.254Z,-2.45
2023-12-02T06:25:09.555Z,-2.47
2023-12-02T06:26:49.961Z,-2.47
2023-12-02T06:28:37.900Z,-2.48
2023-12-02T06:30:18.389Z,-2.48
2023-12-02T06:31:58.768Z,-2.47
2023-12-02T06:33:39.237Z,-2.48
2023-12-02T06:35:19.688Z,-2.47
2023-12-02T06:37:00.202Z,-2.5
2023-12-02T06:38:40.595Z,-2.48
2023-12-02T06:40:21.031Z,-2.47
2023-12-02T06:42:01.511Z,-2.47
2023-12-02T06:43:41.720Z,-2.48
2023-12-02T06:45:22.127Z,-2.48
2023-12-02T06:47:02.528Z,-2.51
2023-12-02T06:48:43.019Z,-2.5
2023-12-02T06:50:23.328Z,-2.48
2023-12-02T06:52:03.726Z,-2.48
2023-12-02T06:53:44.053Z,-2.48
2023-12-02T06:57:04.848Z,-2.48
2023-12-02T06:58:45.160Z,-2.48
2023-12-02T07:00:25.510Z,-2.5
2023-12-02T07:02:05.959Z,-2.48
2023-12-02T07:03:46.344Z,-2.48
2023-12-02T07:05:26.600Z,-2.48
2023-12-02T07:07:09.056Z,-2.5
2023-12-02T07:08:47.484Z,-2.47
2023-12-02T07:10:27.961Z,-2.48
2023-12-02T07:12:08.411Z,-2.5
2023-12-02T07:13:48.838Z,-2.48
2023-12-02T07:15:29.339Z,-2.45
2023-12-02T07:17:09.577Z,-2.47
2023-12-02T07:18:50.036Z,-2.48
2023-12-02T07:20:30.340Z,-2.47
2023-12-02T07:22:11.109Z,-2.48
2023-12-02T07:23:51.188Z,-2.47
2023-12-02T07:25:31.613Z,-2.48
2023-12-02T07:27:12.078Z,-2.47
2023-12-02T07:28:52.476Z,-2.43
2023-12-02T07:30:32.918Z,-2.44
2023-12-02T07:32:13.300Z,-2.41
2023-12-02T07:33:55.865Z,-2.44
2023-12-02T07:35:34.126Z,-2.44
2023-12-02T07:37:14.561Z,-2.41
2023-12-02T07:38:54.964Z,-2.4
2023-12-02T07:40:35.287Z,-2.38
2023-12-02T07:42:15.546Z,-2.38
2023-12-02T07:43:55.832Z,-2.37
2023-12-02T07:45:36.214Z,-2.36
2023-12-02T07:47:16.707Z,-2.34
2023-12-02T07:48:57.190Z,-2.34
2023-12-02T07:50:37.446Z,-2.36
2023-12-02T07:52:17.890Z,-2.33
2023-12-02T07:53:58.307Z,-2.33
2023-12-02T07:55:38.733Z,-2.33
2023-12-02T07:57:19.223Z,-2.31
2023-12-02T07:58:59.559Z,-2.3
2023-12-02T08:00:39.966Z,-2.29
2023-12-02T08:02:20.467Z,-2.26
2023-12-02T08:04:00.771Z,-2.24
2023-12-02T08:07:21.482Z,-2.17
2023-12-02T08:09:02.301Z,-2.2
2023-12-02T08:10:42.323Z,-2.17
2023-12-02T08:12:22.653Z,-2.17
2023-12-02T08:14:03.078Z,-2.13
2023-12-02T08:15:43.500Z,-2.1
2023-12-02T08:17:23.843Z,-2.09
2023-12-02T08:19:04.257Z,-2.06
2023-12-02T08:20:44.772Z,-2.03
2023-12-02T08:22:25.190Z,-1.99
2023-12-02T08:24:05.592Z,-1.97
2023-12-02T08:25:45.967Z,-1.96
2023-12-02T08:27:26.321Z,-1.93
2023-12-02T08:29:06.809Z,-1.93
2023-12-02T08:30:47.100Z,-1.89
2023-12-02T08:32:27.502Z,-1.86
2023-12-02T08:34:10.668Z,-1.8
2023-12-02T08:35:48.269Z,-1.8
2023-12-02T08:37:28.753Z,-1.75
2023-12-02T08:39:09.035Z,-1.69
2023-12-02T08:40:49.466Z,-1.65
2023-12-02T08:42:29.807Z,-1.64
2023-12-02T08:44:13.439Z,-1.62
2023-12-02T08:45:50.529Z,-1.59
2023-12-02T08:47:30.854Z,-1.61
2023-12-02T08:49:11.244Z,-1.58
2023-12-02T08:50:51.675Z,-1.59
2023-12-02T08:52:32.248Z,-1.57
2023-12-02T08:54:12.620Z,-1.55
2023-12-02T08:55:53.081Z,-1.51
2023-12-02T08:57:33.529Z,-1.52
2023-12-02T08:59:13.989Z,-1.54
2023-12-02T09:00:55.958Z,-1.57
2023-12-02T09:02:34.900Z,-1.57
2023-12-02T09:04:15.224Z,-1.57
2023-12-02T09:05:55.600Z,-1.54
2023-12-02T09:07:36.073Z,-1.54
2023-12-02T09:09:16.501Z,-1.58
2023-12-02T09:10:56.875Z,-1.57
2023-12-02T09:12:37.277Z,-1.58
2023-12-02T09:14:17.713Z,-1.59
2023-12-02T09:15:58.155Z,-1.61
2023-12-02T09:17:38.537Z,-1.65
2023-12-02T09:19:19.018Z,-1.64
2023-12-02T09:20:59.423Z,-1.64
2023-12-02T09:22:39.990Z,-1.67
2023-12-02T09:24:20.255Z,-1.67
2023-12-02T09:26:00.749Z,-1.68
2023-12-02T09:27:41.197Z,-1.68
2023-12-02T09:29:21.706Z,-1.69
2023-12-02T09:31:07.958Z,-1.69
2023-12-02T09:32:42.605Z,-1.68
2023-12-02T09:34:23.103Z,-1.67
2023-12-02T09:36:03.588Z,-1.68
2023-12-02T09:37:43.979Z,-1.68
2023-12-02T09:39:24.302Z,-1.61
2023-12-02T09:41:04.991Z,-1.65
2023-12-02T09:42:45.104Z,-1.62
2023-12-02T09:44:25.468Z,-1.65
2023-12-02T09:46:05.962Z,-1.67
2023-12-02T09:47:46.406Z,-1.67
2023-12-02T09:49:26.942Z,-1.71
2023-12-02T09:51:07.352Z,-1.71
2023-12-02T09:52:47.818Z,-1.72
2023-12-02T09:54:28.227Z,-1.71
2023-12-02T09:56:08.706Z,-1.69
2023-12-02T09:57:49.089Z,-1.67
2023-12-02T09:59:29.505Z,-1.65
2023-12-02T10:01:09.845Z,-1.67
2023-12-02T10:02:50.285Z,-1.62
2023-12-02T10:04:30.665Z,-1.61
2023-12-02T10:06:11.083Z,-1.61
2023-12-02T10:07:51.437Z,-1.58
2023-12-02T10:09:31.830Z,-1.57
2023-12-02T10:11:12.252Z,-1.54
2023-12-02T10:12:52.652Z,-1.51
2023-12-02T10:14:33.019Z,-1.52
2023-12-02T10:16:13.449Z,-1.51
2023-12-02T10:17:53.938Z,-1.51
2023-12-02T10:19:34.331Z,-1.48
2023-12-02T10:21:14.712Z,-1.47
2023-12-02T10:22:55.213Z,-1.4
2023-12-02T10:24:35.676Z,-1.44
2023-12-02T10:26:16.186Z,-1.44
2023-12-02T10:27:56.495Z,-1.45
2023-12-02T10:29:36.867Z,-1.45
2023-12-02T10:31:17.342Z,-1.44
2023-12-02T10:32:57.891Z,-1.45
2023-12-02T10:34:38.309Z,-1.4
2023-12-02T10:36:18.638Z,-1.38
2023-12-02T10:37:59.061Z,-1.38
2023-12-02T10:39:39.483Z,-1.38
2023-12-02T10:41:19.911Z,-1.4
2023-12-02T10:43:00.435Z,-1.41
2023-12-02T10:44:40.707Z,-1.41
2023-12-02T10:46:21.096Z,-1.43
2023-12-02T10:48:01.557Z,-1.43
2023-12-02T10:49:41.925Z,-1.44
2023-12-02T10:51:22.370Z,-1.44
2023-12-02T10:53:02.904Z,-1.48
2023-12-02T10:54:43.286Z,-1.44
2023-12-02T10:56:23.717Z,-1.45
2023-12-02T10:58:04.079Z,-1.51
2023-12-02T10:59:44.500Z,-1.48
2023-12-02T11:01:24.912Z,-1.48
2023-12-02T11:03:05.401Z,-1.48
2023-12-02T11:04:45.809Z,-1.5
2023-12-02T11:06:26.288Z,-1.54
2023-12-02T11:08:06.671Z,-1.54
2023-12-02T11:09:49.155Z,-1.55
2023-12-02T11:11:27.550Z,-1.54
2023-12-02T11:13:07.923Z,-1.54
2023-12-02T11:14:48.366Z,-1.51
2023-12-02T11:16:28.704Z,-1.51
2023-12-02T11:18:09.159Z,-1.51
2023-12-02T11:19:49.569Z,-1.52
2023-12-02T11:21:29.987Z,-1.5
2023-12-02T11:23:10.390Z,-1.5
2023-12-02T11:24:50.798Z,-1.5
2023-12-02T11:26:31.217Z,-1.48
2023-12-02T11:28:11.606Z,-1.44
2023-12-02T11:29:51.946Z,-1.45
2023-12-02T11:31:32.406Z,-1.44
2023-12-02T11:33:12.859Z,-1.44
2023-12-02T11:34:53.145Z,-1.44
2023-12-02T11:36:33.513Z,-1.44
2023-12-02T11:38:13.888Z,-1.47
2023-12-02T11:39:54.224Z,-1.45
2023-12-02T11:41:34.664Z,-1.43
2023-12-02T11:43:15.088Z,-1.41
2023-12-02T11:44:55.515Z,-1.41
2023-12-02T11:46:35.953Z,-1.41
2023-12-02T11:48:16.463Z,-1.41
2023-12-02T11:49:56.802Z,-1.41
2023-12-02T11:51:37.341Z,-1.41
2023-12-02T11:53:17.621Z,-1.4
2023-12-02T11:54:58.061Z,-1.41
2023-12-02T11:56:38.447Z,-1.38
2023-12-02T11:58:18.775Z,-1.41
2023-12-02T11:59:59.251Z,-1.36
2023-12-02T12:01:39.643Z,-1.38
2023-12-02T12:03:20.148Z,-1.33
2023-12-02T12:05:00.704Z,-1.31
2023-12-02T12:06:41.038Z,-1.31
2023-12-02T12:08:23.553Z,-1.27
2023-12-02T12:10:01.848Z,-1.27
2023-12-02T12:11:42.215Z,-1.3
2023-12-02T12:13:22.702Z,-1.28
2023-12-02T12:15:03.276Z,-1.27
2023-12-02T12:16:43.782Z,-1.26
2023-12-02T12:18:23.977Z,-1.24
2023-12-02T12:20:04.301Z,-1.27
2023-12-02T12:21:44.655Z,-1.2
2023-12-02T12:23:25.078Z,-1.21
2023-12-02T12:25:05.518Z,-1.16
2023-12-02T12:26:46.039Z,-1.11
2023-12-02T12:28:26.446Z,-1.1
2023-12-02T12:30:06.802Z,-1.09
2023-12-02T12:31:47.198Z,-1.06
2023-12-02T12:33:27.832Z,-1.03
2023-12-02T12:35:08.122Z,-1.01
2023-12-02T12:36:48.597Z,-1.01
2023-12-02T12:38:29.145Z,-0.99
2023-12-02T12:40:09.456Z,-0.94
2023-12-02T12:41:49.928Z,-0.97
2023-12-02T12:43:30.372Z,-0.97
2023-12-02T12:45:10.848Z,-0.97
2023-12-02T12:46:51.277Z,-0.96
2023-12-02T12:48:31.740Z,-0.96
2023-12-02T12:50:12.197Z,-0.94
2023-12-02T12:51:52.586Z,-0.96
2023-12-02T12:53:33.114Z,-0.94
2023-12-02T12:55:13.531Z,-0.93
2023-12-02T12:56:54.018Z,-0.93
2023-12-02T12:58:34.415Z,-0.97
2023-12-02T13:00:14.970Z,-0.97
2023-12-02T13:01:55.307Z,-0.96
2023-12-02T13:03:35.743Z,-0.94
2023-12-02T13:05:16.318Z,-1.01
2023-12-02T13:06:56.722Z,-1.01
2023-12-02T13:08:37.172Z,-1.01
2023-12-02T13:10:17.510Z,-1.03
2023-12-02T13:11:58.074Z,-1
2023-12-02T13:13:38.323Z,-1.03
2023-12-02T13:15:18.734Z,-1.06
2023-12-02T13:16:59.142Z,-1.04
2023-12-02T13:18:39.535Z,-1.04
2023-12-02T13:20:20.013Z,-1.06
2023-12-02T13:22:00.537Z,-1.06
2023-12-02T13:23:40.861Z,-1.07
2023-12-02T13:25:21.388Z,-1.04
2023-12-02T13:27:01.713Z,-1.04
2023-12-02T13:28:42.127Z,-1.1
2023-12-02T13:30:22.580Z,-1.09
2023-12-02T13:32:02.980Z,-1.06
2023-12-02T13:33:43.481Z,-1.06
2023-12-02T13:35:23.906Z,-1.06
2023-12-02T13:37:04.294Z,-1.06
2023-12-02T13:38:44.681Z,-1.07
2023-12-02T13:40:25.129Z,-1.07
2023-12-02T13:42:05.642Z,-1.09
2023-12-02T13:43:46.050Z,-1.09
2023-12-02T13:45:26.599Z,-1.11
2023-12-02T13:47:06.972Z,-1.11
2023-12-02T13:48:47.379Z,-1.1
2023-12-02T13:50:27.867Z,-1.11
2023-12-02T13:52:08.251Z,-1.11
2023-12-02T13:53:48.717Z,-1.11
2023-12-02T13:55:29.212Z,-1.13
2023-12-02T13:57:09.795Z,-1.11
2023-12-02T13:58:50.144Z,-1.13
2023-12-02T14:00:30.528Z,-1.14
2023-12-02T14:02:11.038Z,-1.11
2023-12-02T14:03:51.686Z,-1.13
2023-12-02T14:05:32.064Z,-1.13
2023-12-02T14:07:12.441Z,-1.14
2023-12-02T14:08:52.753Z,-1.14
2023-12-02T14:10:33.207Z,-1.14
2023-12-02T14:12:13.630Z,-1.17
2023-12-02T14:13:54.100Z,-1.16
2023-12-02T14:15:34.587Z,-1.17
2023-12-02T14:17:14.913Z,-1.2
2023-12-02T14:18:55.406Z,-1.2
2023-12-02T14:20:35.625Z,-1.2
2023-12-02T14:22:16.011Z,-1.2
2023-12-02T14:23:56.430Z,-1.2
2023-12-02T14:25:36.864Z,-1.23
2023-12-02T14:27:17.302Z,-1.21
2023-12-02T14:28:57.665Z,-1.24
2023-12-02T14:30:38.124Z,-1.23
2023-12-02T14:32:18.436Z,-1.26
2023-12-02T14:33:58.917Z,-1.26
2023-12-02T14:35:39.152Z,-1.24
2023-12-02T14:37:19.598Z,-1.27
2023-12-02T14:39:00.062Z,-1.24
2023-12-02T14:40:40.382Z,-1.26
2023-12-02T14:42:20.781Z,-1.26
2023-12-02T14:44:01.164Z,-1.28
2023-12-02T14:45:41.557Z,-1.31
2023-12-02T14:47:21.828Z,-1.3
2023-12-02T14:49:02.320Z,-1.31
2023-12-02T14:50:42.681Z,-1.34
2023-12-02T14:52:23.074Z,-1.34
2023-12-02T14:54:03.446Z,-1.37
2023-12-02T14:55:43.802Z,-1.38
2023-12-02T14:57:24.254Z,-1.37
2023-12-02T14:59:04.578Z,-1.4
2023-12-02T15:00:44.976Z,-1.4
2023-12-02T15:02:25.458Z,-1.41
2023-12-02T15:04:06.162Z,-1.43
2023-12-02T15:05:46.958Z,-1.44
2023-12-02T15:07:26.744Z,-1.44
2023-12-02T15:09:07.500Z,-1.47
2023-12-02T15:10:47.792Z,-1.44
2023-12-02T15:12:28.338Z,-1.44
2023-12-02T15:14:08.880Z,-1.5
2023-12-02T15:15:49.191Z,-1.52
2023-12-02T15:17:31.680Z,-1.52
2023-12-02T15:19:10.253Z,-1.57
2023-12-02T15:20:50.412Z,-1.54
2023-12-02T15:22:30.822Z,-1.57
2023-12-02T15:24:11.199Z,-1.59
2023-12-02T15:25:51.727Z,-1.58
2023-12-02T15:27:32.176Z,-1.61
2023-12-02T15:29:12.587Z,-1.64
2023-12-02T15:30:52.949Z,-1.61
2023-12-02T15:32:33.507Z,-1.65
2023-12-02T15:34:13.861Z,-1.65
2023-12-02T15:35:54.399Z,-1.65
2023-12-02T15:37:34.700Z,-1.65
2023-12-02T15:39:15.197Z,-1.67
2023-12-02T15:40:55.582Z,-1.68
2023-12-02T15:42:36.077Z,-1.65
2023-12-02T15:44:16.463Z,-1.68
2023-12-02T15:45:56.842Z,-1.72
2023-12-02T15:47:37.200Z,-1.71
2023-12-02T15:49:17.635Z,-1.69
2023-12-02T15:50:58.057Z,-1.72
2023-12-02T15:52:38.532Z,-1.74
2023-12-02T15:54:19.044Z,-1.75
2023-12-02T15:55:59.437Z,-1.76
2023-12-02T15:57:39.838Z,-1.78
2023-12-02T15:59:20.227Z,-1.8
2023-12-02T16:01:00.652Z,-1.78
2023-12-02T16:02:41.198Z,-1.76
2023-12-02T16:04:21.667Z,-1.79
2023-12-02T16:06:02.187Z,-1.8
2023-12-02T16:07:42.506Z,-1.79
2023-12-02T16:09:23.527Z,-1.8
2023-12-02T16:11:03.404Z,-1.82
2023-12-02T16:12:43.926Z,-1.83
2023-12-02T16:14:24.325Z,-1.83
2023-12-02T16:16:04.781Z,-1.79
2023-12-02T16:17:45.274Z,-1.83
2023-12-02T16:19:25.792Z,-1.85
2023-12-02T16:21:06.259Z,-1.85
2023-12-02T16:22:46.609Z,-1.83
2023-12-02T16:24:27.113Z,-1.83
2023-12-02T16:26:07.508Z,-1.83
2023-12-02T16:27:47.907Z,-1.83
2023-12-02T16:29:28.324Z,-1.82
2023-12-02T16:31:08.737Z,-1.82
2023-12-02T16:32:49.176Z,-1.82
2023-12-02T16:34:29.641Z,-1.85
2023-12-02T16:36:10.091Z,-1.83
2023-12-02T16:37:50.402Z,-1.86
2023-12-02T16:39:30.896Z,-1.86
2023-12-02T16:41:11.292Z,-1.9
2023-12-02T16:42:51.744Z,-1.89
2023-12-02T16:44:32.129Z,-1.86
2023-12-02T16:46:12.594Z,-1.89
2023-12-02T16:47:53.137Z,-1.86
2023-12-02T16:49:33.714Z,-1.9
2023-12-02T16:51:14.343Z,-1.9
2023-12-02T16:52:54.348Z,-1.93
2023-12-02T16:54:34.812Z,-1.92
2023-12-02T16:56:21.436Z,-1.93
2023-12-02T16:57:55.700Z,-1.95
2023-12-02T16:59:36.153Z,-1.96
2023-12-02T17:01:16.572Z,-1.99
2023-12-02T17:02:56.933Z,-1.99
2023-12-02T17:04:37.413Z,-2
2023-12-02T17:06:17.812Z,-2
2023-12-02T17:07:58.228Z,-2.02
2023-12-02T17:09:38.736Z,-2
2023-12-02T17:11:19.105Z,-2.02
2023-12-02T17:12:59.642Z,-2.03
2023-12-02T17:14:40.123Z,-2.05
2023-12-02T17:16:21.938Z,-2.03
2023-12-02T17:18:01.068Z,-2
2023-12-02T17:19:41.465Z,-2
2023-12-02T17:21:21.912Z,-2.02
2023-12-02T17:23:02.326Z,-2
2023-12-02T17:24:43.027Z,-2.02
2023-12-02T17:26:23.193Z,-2.02
2023-12-02T17:28:03.575Z,-2
2023-12-02T17:29:44.018Z,-1.99
2023-12-02T17:31:24.549Z,-2.02
2023-12-02T17:33:05.082Z,-2
2023-12-02T17:34:45.431Z,-2.02
2023-12-02T17:36:25.869Z,-2.02
2023-12-02T17:38:06.318Z,-2.03
2023-12-02T17:39:46.781Z,-2.02
2023-12-02T17:41:27.213Z,-2.03
2023-12-02T17:43:07.667Z,-2
2023-12-02T17:44:48.130Z,-2
2023-12-02T17:46:28.495Z,-2.03
2023-12-02T17:48:08.979Z,-2.05
2023-12-02T17:49:49.267Z,-2.02
2023-12-02T17:51:29.750Z,-2.02
2023-12-02T17:53:10.112Z,-2.07
2023-12-02T17:54:50.617Z,-2.07
2023-12-02T17:56:31.020Z,-2.06
2023-12-02T17:58:11.338Z,-2.06
2023-12-02T17:59:51.815Z,-2.09
2023-12-02T18:01:32.152Z,-2.06
2023-12-02T18:03:12.578Z,-2.07
2023-12-02T18:04:53.030Z,-2.09
2023-12-02T18:06:33.407Z,-2.09
2023-12-02T18:08:13.806Z,-2.07
2023-12-02T18:09:54.133Z,-2.09
2023-12-02T18:11:34.637Z,-2.1
2023-12-02T18:13:15.048Z,-2.1
2023-12-02T18:14:55.472Z,-2.11
2023-12-02T18:16:35.855Z,-2.11
2023-12-02T18:18:16.380Z,-2.13
2023-12-02T18:19:56.857Z,-2.09
2023-12-02T18:21:37.291Z,-2.09
2023-12-02T18:23:17.661Z,-2.1
2023-12-02T18:24:57.954Z,-2.1
2023-12-02T18:26:38.404Z,-2.09
2023-12-02T18:28:18.772Z,-2.09
2023-12-02T18:29:59.133Z,-2.07
2023-12-02T18:31:39.547Z,-2.06
2023-12-02T18:33:19.998Z,-2.07
2023-12-02T18:35:00.382Z,-2.05
2023-12-02T18:36:40.537Z,-2.05
2023-12-02T18:38:20.913Z,-2.05
2023-12-02T18:40:01.281Z,-2.03
2023-12-02T18:41:41.722Z,-2
2023-12-02T18:43:22.170Z,-2.03
2023-12-02T18:45:02.602Z,-2.03
2023-12-02T18:46:42.985Z,-2.03
2023-12-02T18:48:23.556Z,-2.03
2023-12-02T18:50:03.776Z,-2.02
2023-12-02T18:51:44.315Z,-2
2023-12-02T18:53:24.615Z,-2
2023-12-02T18:55:05.028Z,-1.97
2023-12-02T18:56:45.426Z,-1.99
2023-12-02T18:58:25.741Z,-1.99
2023-12-02T19:00:06.338Z,-1.99
2023-12-02T19:01:46.670Z,-1.99
2023-12-02T19:03:27.106Z,-1.97
2023-12-02T19:05:07.615Z,-1.95
2023-12-02T19:06:47.914Z,-1.96
2023-12-02T19:08:28.281Z,-1.96
2023-12-02T19:10:08.642Z,-1.96
2023-12-02T19:11:49.050Z,-1.95
2023-12-02T19:13:29.427Z,-1.95
2023-12-02T19:15:09.896Z,-1.95
2023-12-02T19:16:50.209Z,-1.92
2023-12-02T19:18:30.778Z,-1.92
2023-12-02T19:20:11.010Z,-1.92
2023-12-02T19:21:51.429Z,-1.93
2023-12-02T19:23:31.837Z,-1.93
2023-12-02T19:25:12.177Z,-1.92
2023-12-02T19:26:52.541Z,-1.89
2023-12-02T19:28:32.939Z,-1.88
2023-12-02T19:30:13.295Z,-1.9
2023-12-02T19:31:53.603Z,-1.89
2023-12-02T19:33:34.007Z,-1.86
2023-12-02T19:35:14.340Z,-1.88
2023-12-02T19:36:54.744Z,-1.86
2023-12-02T19:38:35.151Z,-1.85
2023-12-02T19:40:15.563Z,-1.83
2023-12-02T19:41:55.925Z,-1.82
2023-12-02T19:43:36.563Z,-1.79
2023-12-02T19:45:16.753Z,-1.82
2023-12-02T19:46:57.040Z,-1.78
2023-12-02T19:48:37.528Z,-1.78
2023-12-02T19:50:17.895Z,-1.76
2023-12-02T19:51:58.275Z,-1.78
2023-12-02T19:53:38.653Z,-1.74
2023-12-02T19:55:19.081Z,-1.69
2023-12-02T19:56:59.492Z,-1.68
2023-12-02T19:58:39.951Z,-1.65
2023-12-02T20:00:20.328Z,-1.64
2023-12-02T20:02:00.811Z,-1.64
2023-12-02T20:03:41.137Z,-1.58
2023-12-02T20:05:21.621Z,-1.59
2023-12-02T20:07:01.988Z,-1.55
2023-12-02T20:08:42.373Z,-1.54
2023-12-02T20:10:22.769Z,-1.52
2023-12-02T20:12:03.232Z,-1.54
2023-12-02T20:13:43.566Z,-1.5
2023-12-02T20:15:23.967Z,-1.48
2023-12-02T20:17:04.398Z,-1.5
2023-12-02T20:18:44.847Z,-1.48
2023-12-02T20:20:25.179Z,-1.45
2023-12-02T20:22:05.595Z,-1.45
2023-12-02T20:23:46.046Z,-1.43
2023-12-02T20:25:26.476Z,-1.45
2023-12-02T20:27:06.913Z,-1.44
2023-12-02T20:28:47.209Z,-1.41
2023-12-02T20:30:27.608Z,-1.44
2023-12-02T20:32:08.034Z,-1.45
2023-12-02T20:33:48.424Z,-1.43
2023-12-02T20:35:28.798Z,-1.44
2023-12-02T20:37:09.238Z,-1.43
2023-12-02T20:38:49.718Z,-1.4
2023-12-02T20:40:30.190Z,-1.37
2023-12-02T20:42:10.571Z,-1.37
2023-12-02T20:43:50.886Z,-1.36
2023-12-02T20:45:31.287Z,-1.38
2023-12-02T20:47:11.673Z,-1.34
2023-12-02T20:48:52.151Z,-1.36
2023-12-02T20:50:32.497Z,-1.34
2023-12-02T20:52:12.918Z,-1.33
2023-12-02T20:53:53.333Z,-1.31
2023-12-02T20:55:33.753Z,-1.3
2023-12-02T20:57:14.228Z,-1.33
2023-12-02T20:58:54.575Z,-1.3
2023-12-02T21:00:35.075Z,-1.31
2023-12-02T21:02:15.409Z,-1.31
2023-12-02T21:03:55.916Z,-1.31
2023-12-02T21:05:36.417Z,-1.3
2023-12-02T21:07:16.830Z,-1.28
2023-12-02T21:08:57.229Z,-1.3
2023-12-02T21:10:37.650Z,-1.28
2023-12-02T21:12:18.131Z,-1.3
2023-12-02T21:13:58.581Z,-1.28
2023-12-02T21:15:43.460Z,-1.27
2023-12-02T21:17:19.392Z,-1.27
2023-12-02T21:18:59.870Z,-1.24
2023-12-02T21:20:40.191Z,-1.26
2023-12-02T21:22:20.644Z,-1.26
2023-12-02T21:24:01.739Z,-1.28
2023-12-02T21:25:41.546Z,-1.27
2023-12-02T21:27:22.049Z,-1.3
2023-12-02T21:29:02.419Z,-1.31
2023-12-02T21:30:42.993Z,-1.38
2023-12-02T21:32:23.276Z,-1.38
2023-12-02T21:34:03.796Z,-1.44
2023-12-02T21:35:44.154Z,-1.4
2023-12-02T21:37:24.529Z,-1.41
2023-12-02T21:39:04.993Z,-1.44
2023-12-02T21:40:45.315Z,-1.44
2023-12-02T21:42:25.723Z,-1.44
2023-12-02T21:44:05.993Z,-1.48